sensor_id;sensor_type;location;lat;lon;timestamp;P1;durP1;ratioP1;P2;durP2;ratioP2
65418;SDS011;52027;50.658;14.004;2022-10-20T00:00:58;8.20;;;4.38;;
65418;SDS011;52027;50.658;14.004;2022-10-20T00:03:24;7.55;;;3.90;;
65418;SDS011;52027;50.658;14.004;2022-10-20T00:05:50;8.38;;;4.20;;
65418;SDS011;52027;50.658;14.004;2022-10-20T00:08:16;8.85;;;4.15;;
65418;SDS011;52027;50.658;14.004;2022-10-20T00:10:41;8.68;;;4.20;;
65418;SDS011;52027;50.658;14.004;2022-10-20T00:13:07;8.88;;;4.30;;
65418;SDS011;52027;50.658;14.004;2022-10-20T00:15:32;8.48;;;4.20;;
65418;SDS011;52027;50.658;14.004;2022-10-20T00:17:58;8.75;;;4.18;;
65418;SDS011;52027;50.658;14.004;2022-10-20T00:20:23;8.07;;;4.13;;
65418;SDS011;52027;50.658;14.004;2022-10-20T00:22:49;8.32;;;4.30;;
65418;SDS011;52027;50.658;14.004;2022-10-20T00:25:14;8.50;;;4.35;;
65418;SDS011;52027;50.658;14.004;2022-10-20T00:27:39;8.02;;;3.90;;
65418;SDS011;52027;50.658;14.004;2022-10-20T00:30:05;8.23;;;4.15;;
65418;SDS011;52027;50.658;14.004;2022-10-20T00:32:31;8.02;;;3.92;;
65418;SDS011;52027;50.658;14.004;2022-10-20T00:34:56;9.95;;;4.35;;
65418;SDS011;52027;50.658;14.004;2022-10-20T00:37:21;8.15;;;3.97;;
65418;SDS011;52027;50.658;14.004;2022-10-20T00:39:47;9.20;;;4.20;;
65418;SDS011;52027;50.658;14.004;2022-10-20T00:42:18;7.70;;;4.10;;
65418;SDS011;52027;50.658;14.004;2022-10-20T00:47:22;9.15;;;4.38;;
65418;SDS011;52027;50.658;14.004;2022-10-20T00:50:00;10.10;;;4.15;;
65418;SDS011;52027;50.658;14.004;2022-10-20T00:52:29;8.50;;;4.07;;
65418;SDS011;52027;50.658;14.004;2022-10-20T00:54:54;8.98;;;4.20;;
65418;SDS011;52027;50.658;14.004;2022-10-20T00:57:20;8.13;;;3.95;;
65418;SDS011;52027;50.658;14.004;2022-10-20T00:59:45;8.27;;;4.22;;
65418;SDS011;52027;50.658;14.004;2022-10-20T01:02:10;8.80;;;4.20;;
65418;SDS011;52027;50.658;14.004;2022-10-20T01:04:36;9.60;;;3.97;;
65418;SDS011;52027;50.658;14.004;2022-10-20T01:07:02;8.80;;;4.35;;
65418;SDS011;52027;50.658;14.004;2022-10-20T01:09:28;7.32;;;3.67;;
65418;SDS011;52027;50.658;14.004;2022-10-20T01:15:04;9.63;;;4.40;;
65418;SDS011;52027;50.658;14.004;2022-10-20T01:25:45;8.73;;;4.32;;
65418;SDS011;52027;50.658;14.004;2022-10-20T01:28:36;9.93;;;4.05;;
65418;SDS011;52027;50.658;14.004;2022-10-20T01:31:02;8.20;;;4.10;;
65418;SDS011;52027;50.658;14.004;2022-10-20T01:36:34;8.50;;;3.85;;
65418;SDS011;52027;50.658;14.004;2022-10-20T01:45:17;8.32;;;4.25;;
65418;SDS011;52027;50.658;14.004;2022-10-20T01:47:46;7.47;;;4.10;;
65418;SDS011;52027;50.658;14.004;2022-10-20T01:50:14;9.07;;;4.40;;
65418;SDS011;52027;50.658;14.004;2022-10-20T01:52:41;7.55;;;3.92;;
65418;SDS011;52027;50.658;14.004;2022-10-20T01:55:10;7.95;;;4.05;;
65418;SDS011;52027;50.658;14.004;2022-10-20T01:57:43;7.13;;;3.88;;
65418;SDS011;52027;50.658;14.004;2022-10-20T02:00:26;8.70;;;4.15;;
65418;SDS011;52027;50.658;14.004;2022-10-20T02:08:50;8.15;;;4.00;;
65418;SDS011;52027;50.658;14.004;2022-10-20T02:14:19;8.15;;;4.07;;
65418;SDS011;52027;50.658;14.004;2022-10-20T02:16:48;7.55;;;3.80;;
65418;SDS011;52027;50.658;14.004;2022-10-20T02:19:17;7.53;;;4.00;;
65418;SDS011;52027;50.658;14.004;2022-10-20T02:21:46;7.15;;;4.00;;
65418;SDS011;52027;50.658;14.004;2022-10-20T02:24:13;7.78;;;3.88;;
65418;SDS011;52027;50.658;14.004;2022-10-20T02:26:39;7.88;;;3.83;;
65418;SDS011;52027;50.658;14.004;2022-10-20T02:29:10;7.80;;;4.03;;
65418;SDS011;52027;50.658;14.004;2022-10-20T02:31:39;8.30;;;4.10;;
65418;SDS011;52027;50.658;14.004;2022-10-20T02:34:06;7.93;;;4.10;;
65418;SDS011;52027;50.658;14.004;2022-10-20T02:36:35;8.02;;;3.97;;
65418;SDS011;52027;50.658;14.004;2022-10-20T02:39:03;7.43;;;3.72;;
65418;SDS011;52027;50.658;14.004;2022-10-20T02:41:28;7.90;;;3.95;;
65418;SDS011;52027;50.658;14.004;2022-10-20T02:43:55;8.18;;;3.92;;
65418;SDS011;52027;50.658;14.004;2022-10-20T02:46:20;7.78;;;4.00;;
65418;SDS011;52027;50.658;14.004;2022-10-20T02:48:46;9.00;;;3.90;;
65418;SDS011;52027;50.658;14.004;2022-10-20T02:51:12;7.28;;;3.90;;
65418;SDS011;52027;50.658;14.004;2022-10-20T02:53:37;7.60;;;3.83;;
65418;SDS011;52027;50.658;14.004;2022-10-20T02:56:03;7.00;;;3.80;;
65418;SDS011;52027;50.658;14.004;2022-10-20T02:58:28;7.38;;;3.78;;
65418;SDS011;52027;50.658;14.004;2022-10-20T03:00:53;7.65;;;3.90;;
65418;SDS011;52027;50.658;14.004;2022-10-20T03:03:19;7.80;;;4.00;;
65418;SDS011;52027;50.658;14.004;2022-10-20T03:05:44;7.72;;;3.60;;
65418;SDS011;52027;50.658;14.004;2022-10-20T03:08:11;7.28;;;3.80;;
65418;SDS011;52027;50.658;14.004;2022-10-20T03:10:37;7.97;;;3.95;;
65418;SDS011;52027;50.658;14.004;2022-10-20T03:13:03;7.97;;;4.07;;
65418;SDS011;52027;50.658;14.004;2022-10-20T03:15:29;7.18;;;3.80;;
65418;SDS011;52027;50.658;14.004;2022-10-20T03:17:55;8.60;;;4.03;;
65418;SDS011;52027;50.658;14.004;2022-10-20T03:20:20;7.95;;;3.70;;
65418;SDS011;52027;50.658;14.004;2022-10-20T03:22:46;7.53;;;4.03;;
65418;SDS011;52027;50.658;14.004;2022-10-20T03:25:11;8.18;;;4.25;;
65418;SDS011;52027;50.658;14.004;2022-10-20T03:27:36;7.15;;;3.88;;
65418;SDS011;52027;50.658;14.004;2022-10-20T03:30:02;7.18;;;3.83;;
65418;SDS011;52027;50.658;14.004;2022-10-20T03:32:28;6.80;;;3.92;;
65418;SDS011;52027;50.658;14.004;2022-10-20T03:34:53;7.45;;;3.90;;
65418;SDS011;52027;50.658;14.004;2022-10-20T03:37:18;6.90;;;3.75;;
65418;SDS011;52027;50.658;14.004;2022-10-20T03:39:44;8.77;;;3.85;;
65418;SDS011;52027;50.658;14.004;2022-10-20T03:42:09;9.13;;;4.35;;
65418;SDS011;52027;50.658;14.004;2022-10-20T03:44:34;8.45;;;4.00;;
65418;SDS011;52027;50.658;14.004;2022-10-20T03:47:00;8.43;;;4.20;;
65418;SDS011;52027;50.658;14.004;2022-10-20T03:49:25;9.70;;;4.50;;
65418;SDS011;52027;50.658;14.004;2022-10-20T03:51:50;8.73;;;4.38;;
65418;SDS011;52027;50.658;14.004;2022-10-20T03:54:16;14.38;;;4.60;;
65418;SDS011;52027;50.658;14.004;2022-10-20T03:56:41;10.27;;;4.40;;
65418;SDS011;52027;50.658;14.004;2022-10-20T03:59:06;8.98;;;4.25;;
65418;SDS011;52027;50.658;14.004;2022-10-20T04:01:33;10.23;;;4.35;;
65418;SDS011;52027;50.658;14.004;2022-10-20T04:03:58;8.90;;;4.20;;
65418;SDS011;52027;50.658;14.004;2022-10-20T04:06:24;8.15;;;4.20;;
65418;SDS011;52027;50.658;14.004;2022-10-20T04:08:49;9.05;;;4.40;;
65418;SDS011;52027;50.658;14.004;2022-10-20T04:11:15;10.18;;;4.72;;
65418;SDS011;52027;50.658;14.004;2022-10-20T04:13:40;9.10;;;4.70;;
65418;SDS011;52027;50.658;14.004;2022-10-20T04:16:06;8.02;;;4.55;;
65418;SDS011;52027;50.658;14.004;2022-10-20T04:18:31;8.05;;;4.15;;
65418;SDS011;52027;50.658;14.004;2022-10-20T04:20:57;9.05;;;4.70;;
65418;SDS011;52027;50.658;14.004;2022-10-20T04:23:22;9.48;;;4.65;;
65418;SDS011;52027;50.658;14.004;2022-10-20T04:25:48;9.70;;;4.63;;
65418;SDS011;52027;50.658;14.004;2022-10-20T04:28:14;10.82;;;4.57;;
65418;SDS011;52027;50.658;14.004;2022-10-20T04:30:40;11.55;;;4.90;;
65418;SDS011;52027;50.658;14.004;2022-10-20T04:33:06;12.15;;;5.28;;
65418;SDS011;52027;50.658;14.004;2022-10-20T04:35:32;8.45;;;4.60;;
65418;SDS011;52027;50.658;14.004;2022-10-20T04:37:58;15.27;;;5.20;;
65418;SDS011;52027;50.658;14.004;2022-10-20T04:40:23;14.02;;;4.90;;
65418;SDS011;52027;50.658;14.004;2022-10-20T04:42:48;12.27;;;5.00;;
65418;SDS011;52027;50.658;14.004;2022-10-20T04:45:14;13.82;;;4.97;;
65418;SDS011;52027;50.658;14.004;2022-10-20T04:47:39;12.70;;;5.20;;
65418;SDS011;52027;50.658;14.004;2022-10-20T04:50:05;14.40;;;5.10;;
65418;SDS011;52027;50.658;14.004;2022-10-20T04:52:30;14.82;;;4.80;;
65418;SDS011;52027;50.658;14.004;2022-10-20T04:54:56;11.55;;;5.05;;
65418;SDS011;52027;50.658;14.004;2022-10-20T04:57:21;13.63;;;5.40;;
65418;SDS011;52027;50.658;14.004;2022-10-20T04:59:47;16.02;;;5.10;;
65418;SDS011;52027;50.658;14.004;2022-10-20T05:02:12;15.05;;;5.13;;
65418;SDS011;52027;50.658;14.004;2022-10-20T05:04:38;14.60;;;5.20;;
65418;SDS011;52027;50.658;14.004;2022-10-20T05:07:03;14.10;;;5.20;;
65418;SDS011;52027;50.658;14.004;2022-10-20T05:09:28;17.05;;;5.07;;
65418;SDS011;52027;50.658;14.004;2022-10-20T05:11:55;14.77;;;5.05;;
65418;SDS011;52027;50.658;14.004;2022-10-20T05:14:20;17.00;;;5.13;;
65418;SDS011;52027;50.658;14.004;2022-10-20T05:16:46;15.25;;;5.75;;
65418;SDS011;52027;50.658;14.004;2022-10-20T05:19:11;16.92;;;5.57;;
65418;SDS011;52027;50.658;14.004;2022-10-20T05:21:36;15.90;;;5.28;;
65418;SDS011;52027;50.658;14.004;2022-10-20T05:24:03;22.00;;;5.45;;
65418;SDS011;52027;50.658;14.004;2022-10-20T05:26:30;20.27;;;5.30;;
65418;SDS011;52027;50.658;14.004;2022-10-20T05:28:59;21.73;;;5.65;;
65418;SDS011;52027;50.658;14.004;2022-10-20T05:31:25;19.52;;;5.88;;
65418;SDS011;52027;50.658;14.004;2022-10-20T05:33:51;15.18;;;5.72;;
65418;SDS011;52027;50.658;14.004;2022-10-20T05:36:20;15.43;;;5.50;;
65418;SDS011;52027;50.658;14.004;2022-10-20T05:38:48;20.85;;;5.70;;
65418;SDS011;52027;50.658;14.004;2022-10-20T05:41:17;18.27;;;5.68;;
65418;SDS011;52027;50.658;14.004;2022-10-20T05:43:51;18.88;;;5.90;;
65418;SDS011;52027;50.658;14.004;2022-10-20T05:46:21;25.98;;;6.75;;
65418;SDS011;52027;50.658;14.004;2022-10-20T05:48:50;21.30;;;6.22;;
65418;SDS011;52027;50.658;14.004;2022-10-20T05:51:18;18.30;;;5.93;;
65418;SDS011;52027;50.658;14.004;2022-10-20T05:53:49;22.50;;;6.05;;
65418;SDS011;52027;50.658;14.004;2022-10-20T05:56:16;28.55;;;6.65;;
65418;SDS011;52027;50.658;14.004;2022-10-20T05:59:04;21.63;;;6.03;;
65418;SDS011;52027;50.658;14.004;2022-10-20T06:01:29;19.30;;;5.88;;
65418;SDS011;52027;50.658;14.004;2022-10-20T06:04:17;19.73;;;6.05;;
65418;SDS011;52027;50.658;14.004;2022-10-20T06:06:47;22.48;;;6.10;;
65418;SDS011;52027;50.658;14.004;2022-10-20T06:09:13;19.38;;;6.25;;
65418;SDS011;52027;50.658;14.004;2022-10-20T06:11:39;18.42;;;6.28;;
65418;SDS011;52027;50.658;14.004;2022-10-20T06:14:07;23.73;;;6.47;;
65418;SDS011;52027;50.658;14.004;2022-10-20T06:16:33;23.95;;;6.57;;
65418;SDS011;52027;50.658;14.004;2022-10-20T06:18:59;23.30;;;6.22;;
65418;SDS011;52027;50.658;14.004;2022-10-20T06:21:27;23.17;;;6.57;;
65418;SDS011;52027;50.658;14.004;2022-10-20T06:23:54;21.35;;;6.50;;
65418;SDS011;52027;50.658;14.004;2022-10-20T06:26:22;28.75;;;6.57;;
65418;SDS011;52027;50.658;14.004;2022-10-20T06:28:50;20.63;;;6.38;;
65418;SDS011;52027;50.658;14.004;2022-10-20T06:31:18;21.48;;;6.63;;
65418;SDS011;52027;50.658;14.004;2022-10-20T06:33:51;18.38;;;6.57;;
65418;SDS011;52027;50.658;14.004;2022-10-20T06:36:17;23.30;;;6.45;;
65418;SDS011;52027;50.658;14.004;2022-10-20T06:38:44;27.55;;;6.47;;
65418;SDS011;52027;50.658;14.004;2022-10-20T06:41:14;22.70;;;6.80;;
65418;SDS011;52027;50.658;14.004;2022-10-20T06:43:41;21.45;;;6.22;;
65418;SDS011;52027;50.658;14.004;2022-10-20T06:46:09;21.98;;;6.55;;
65418;SDS011;52027;50.658;14.004;2022-10-20T06:48:36;18.63;;;6.25;;
65418;SDS011;52027;50.658;14.004;2022-10-20T06:51:05;21.33;;;6.53;;
65418;SDS011;52027;50.658;14.004;2022-10-20T06:53:34;18.30;;;6.25;;
65418;SDS011;52027;50.658;14.004;2022-10-20T06:56:04;20.48;;;6.50;;
65418;SDS011;52027;50.658;14.004;2022-10-20T06:58:37;17.13;;;6.63;;
65418;SDS011;52027;50.658;14.004;2022-10-20T07:01:04;22.65;;;6.65;;
65418;SDS011;52027;50.658;14.004;2022-10-20T07:03:32;25.77;;;6.70;;
65418;SDS011;52027;50.658;14.004;2022-10-20T07:05:58;20.30;;;6.88;;
65418;SDS011;52027;50.658;14.004;2022-10-20T07:08:26;20.45;;;6.63;;
65418;SDS011;52027;50.658;14.004;2022-10-20T07:11:06;25.20;;;6.97;;
65418;SDS011;52027;50.658;14.004;2022-10-20T07:13:34;22.52;;;7.18;;
65418;SDS011;52027;50.658;14.004;2022-10-20T07:16:01;17.92;;;6.47;;
65418;SDS011;52027;50.658;14.004;2022-10-20T07:18:28;28.80;;;6.97;;
65418;SDS011;52027;50.658;14.004;2022-10-20T07:20:57;31.25;;;6.82;;
65418;SDS011;52027;50.658;14.004;2022-10-20T07:23:24;29.95;;;6.82;;
65418;SDS011;52027;50.658;14.004;2022-10-20T07:25:51;28.08;;;7.13;;
65418;SDS011;52027;50.658;14.004;2022-10-20T07:28:17;27.80;;;7.43;;
65418;SDS011;52027;50.658;14.004;2022-10-20T07:30:45;31.35;;;7.30;;
65418;SDS011;52027;50.658;14.004;2022-10-20T07:33:10;26.63;;;7.55;;
65418;SDS011;52027;50.658;14.004;2022-10-20T07:35:35;24.88;;;7.75;;
65418;SDS011;52027;50.658;14.004;2022-10-20T07:38:01;28.90;;;7.30;;
65418;SDS011;52027;50.658;14.004;2022-10-20T07:40:27;26.23;;;7.10;;
65418;SDS011;52027;50.658;14.004;2022-10-20T07:42:52;23.48;;;8.05;;
65418;SDS011;52027;50.658;14.004;2022-10-20T07:45:19;35.85;;;7.60;;
65418;SDS011;52027;50.658;14.004;2022-10-20T07:47:44;25.42;;;7.85;;
65418;SDS011;52027;50.658;14.004;2022-10-20T07:50:10;26.38;;;8.05;;
65418;SDS011;52027;50.658;14.004;2022-10-20T07:52:37;26.48;;;7.75;;
65418;SDS011;52027;50.658;14.004;2022-10-20T07:55:02;26.05;;;7.60;;
65418;SDS011;52027;50.658;14.004;2022-10-20T07:57:28;25.45;;;7.40;;
65418;SDS011;52027;50.658;14.004;2022-10-20T07:59:53;29.42;;;7.78;;
65418;SDS011;52027;50.658;14.004;2022-10-20T08:02:19;31.00;;;7.50;;
65418;SDS011;52027;50.658;14.004;2022-10-20T08:04:44;25.15;;;7.35;;
65418;SDS011;52027;50.658;14.004;2022-10-20T08:07:10;31.02;;;7.72;;
65418;SDS011;52027;50.658;14.004;2022-10-20T08:09:35;23.98;;;7.47;;
65418;SDS011;52027;50.658;14.004;2022-10-20T08:12:02;30.98;;;7.90;;
65418;SDS011;52027;50.658;14.004;2022-10-20T08:14:28;34.15;;;8.00;;
65418;SDS011;52027;50.658;14.004;2022-10-20T08:16:57;31.83;;;7.43;;
65418;SDS011;52027;50.658;14.004;2022-10-20T08:19:23;28.23;;;8.02;;
65418;SDS011;52027;50.658;14.004;2022-10-20T08:21:48;24.35;;;7.75;;
65418;SDS011;52027;50.658;14.004;2022-10-20T08:24:14;32.25;;;8.07;;
65418;SDS011;52027;50.658;14.004;2022-10-20T08:26:39;25.40;;;8.10;;
65418;SDS011;52027;50.658;14.004;2022-10-20T08:29:04;25.20;;;7.88;;
65418;SDS011;52027;50.658;14.004;2022-10-20T08:31:30;22.80;;;7.65;;
65418;SDS011;52027;50.658;14.004;2022-10-20T08:33:55;24.17;;;7.85;;
65418;SDS011;52027;50.658;14.004;2022-10-20T08:36:21;24.45;;;8.10;;
65418;SDS011;52027;50.658;14.004;2022-10-20T08:38:46;23.27;;;8.55;;
65418;SDS011;52027;50.658;14.004;2022-10-20T08:41:15;27.98;;;8.07;;
65418;SDS011;52027;50.658;14.004;2022-10-20T08:43:42;29.13;;;7.85;;
65418;SDS011;52027;50.658;14.004;2022-10-20T08:46:14;24.70;;;8.38;;
65418;SDS011;52027;50.658;14.004;2022-10-20T08:48:41;24.55;;;8.25;;
65418;SDS011;52027;50.658;14.004;2022-10-20T08:51:19;31.48;;;8.07;;
65418;SDS011;52027;50.658;14.004;2022-10-20T08:53:48;25.05;;;7.75;;
65418;SDS011;52027;50.658;14.004;2022-10-20T08:56:16;28.23;;;7.65;;
65418;SDS011;52027;50.658;14.004;2022-10-20T08:58:43;25.70;;;8.20;;
65418;SDS011;52027;50.658;14.004;2022-10-20T09:01:15;23.67;;;7.97;;
65418;SDS011;52027;50.658;14.004;2022-10-20T09:03:48;30.02;;;8.20;;
65418;SDS011;52027;50.658;14.004;2022-10-20T09:06:18;32.20;;;8.18;;
65418;SDS011;52027;50.658;14.004;2022-10-20T09:08:44;29.90;;;7.80;;
65418;SDS011;52027;50.658;14.004;2022-10-20T09:11:13;22.38;;;8.00;;
65418;SDS011;52027;50.658;14.004;2022-10-20T09:13:41;29.13;;;7.68;;
65418;SDS011;52027;50.658;14.004;2022-10-20T09:16:09;26.00;;;8.25;;
65418;SDS011;52027;50.658;14.004;2022-10-20T09:18:35;29.92;;;8.35;;
65418;SDS011;52027;50.658;14.004;2022-10-20T09:21:08;28.85;;;8.40;;
65418;SDS011;52027;50.658;14.004;2022-10-20T09:23:43;37.95;;;9.25;;
65418;SDS011;52027;50.658;14.004;2022-10-20T09:26:14;29.90;;;8.73;;
65418;SDS011;52027;50.658;14.004;2022-10-20T09:28:40;20.83;;;8.13;;
65418;SDS011;52027;50.658;14.004;2022-10-20T09:31:18;18.73;;;7.60;;
65418;SDS011;52027;50.658;14.004;2022-10-20T09:37:03;19.38;;;7.70;;
65418;SDS011;52027;50.658;14.004;2022-10-20T09:39:30;17.92;;;6.70;;
65418;SDS011;52027;50.658;14.004;2022-10-20T09:42:11;14.52;;;6.38;;
65418;SDS011;52027;50.658;14.004;2022-10-20T09:44:45;15.10;;;6.68;;
65418;SDS011;52027;50.658;14.004;2022-10-20T09:47:13;13.57;;;7.03;;
65418;SDS011;52027;50.658;14.004;2022-10-20T09:49:41;13.25;;;6.55;;
65418;SDS011;52027;50.658;14.004;2022-10-20T09:52:21;17.58;;;7.38;;
65418;SDS011;52027;50.658;14.004;2022-10-20T09:54:51;12.90;;;6.47;;
65418;SDS011;52027;50.658;14.004;2022-10-20T09:57:21;12.63;;;6.35;;
65418;SDS011;52027;50.658;14.004;2022-10-20T09:59:51;10.65;;;6.20;;
65418;SDS011;52027;50.658;14.004;2022-10-20T10:04:48;12.45;;;6.47;;
65418;SDS011;52027;50.658;14.004;2022-10-20T10:09:50;13.15;;;7.07;;
65418;SDS011;52027;50.658;14.004;2022-10-20T10:12:35;14.52;;;6.78;;
65418;SDS011;52027;50.658;14.004;2022-10-20T10:15:02;14.55;;;6.70;;
65418;SDS011;52027;50.658;14.004;2022-10-20T10:17:31;12.25;;;6.80;;
65418;SDS011;52027;50.658;14.004;2022-10-20T10:19:57;14.55;;;6.70;;
65418;SDS011;52027;50.658;14.004;2022-10-20T10:22:23;11.93;;;6.70;;
65418;SDS011;52027;50.658;14.004;2022-10-20T10:24:48;11.80;;;6.82;;
65418;SDS011;52027;50.658;14.004;2022-10-20T10:27:35;10.57;;;6.30;;
65418;SDS011;52027;50.658;14.004;2022-10-20T10:32:44;11.50;;;6.05;;
65418;SDS011;52027;50.658;14.004;2022-10-20T10:35:14;11.15;;;6.20;;
65418;SDS011;52027;50.658;14.004;2022-10-20T10:37:46;9.68;;;6.18;;
65418;SDS011;52027;50.658;14.004;2022-10-20T10:45:16;10.57;;;5.72;;
65418;SDS011;52027;50.658;14.004;2022-10-20T10:47:52;11.15;;;5.97;;
65418;SDS011;52027;50.658;14.004;2022-10-20T10:58:56;16.73;;;6.10;;
65418;SDS011;52027;50.658;14.004;2022-10-20T11:07:04;11.73;;;6.20;;
65418;SDS011;52027;50.658;14.004;2022-10-20T11:18:26;14.02;;;5.68;;
65418;SDS011;52027;50.658;14.004;2022-10-20T11:20:57;13.02;;;5.60;;
65418;SDS011;52027;50.658;14.004;2022-10-20T11:28:41;11.50;;;5.07;;
65418;SDS011;52027;50.658;14.004;2022-10-20T11:31:33;15.38;;;5.40;;
65418;SDS011;52027;50.658;14.004;2022-10-20T11:36:39;14.60;;;5.50;;
65418;SDS011;52027;50.658;14.004;2022-10-20T11:39:24;13.63;;;5.80;;
65418;SDS011;52027;50.658;14.004;2022-10-20T11:42:11;13.93;;;5.50;;
65418;SDS011;52027;50.658;14.004;2022-10-20T11:44:45;13.40;;;5.53;;
65418;SDS011;52027;50.658;14.004;2022-10-20T11:47:13;13.77;;;5.28;;
65418;SDS011;52027;50.658;14.004;2022-10-20T11:49:42;11.85;;;5.07;;
65418;SDS011;52027;50.658;14.004;2022-10-20T12:05:01;12.73;;;4.82;;
65418;SDS011;52027;50.658;14.004;2022-10-20T12:10:32;11.95;;;4.82;;
65418;SDS011;52027;50.658;14.004;2022-10-20T12:16:01;12.57;;;5.07;;
65418;SDS011;52027;50.658;14.004;2022-10-20T12:18:27;8.18;;;4.47;;
65418;SDS011;52027;50.658;14.004;2022-10-20T12:20:58;12.05;;;4.25;;
65418;SDS011;52027;50.658;14.004;2022-10-20T12:28:53;10.00;;;4.60;;
65418;SDS011;52027;50.658;14.004;2022-10-20T12:31:19;12.70;;;4.60;;
65418;SDS011;52027;50.658;14.004;2022-10-20T12:38:46;16.67;;;5.07;;
65418;SDS011;52027;50.658;14.004;2022-10-20T12:41:30;10.88;;;5.15;;
65418;SDS011;52027;50.658;14.004;2022-10-20T12:43:59;13.68;;;4.40;;
65418;SDS011;52027;50.658;14.004;2022-10-20T12:46:30;14.27;;;5.53;;
65418;SDS011;52027;50.658;14.004;2022-10-20T12:48:58;10.35;;;4.60;;
65418;SDS011;52027;50.658;14.004;2022-10-20T12:51:31;9.57;;;4.70;;
65418;SDS011;52027;50.658;14.004;2022-10-20T12:54:01;13.00;;;4.65;;
65418;SDS011;52027;50.658;14.004;2022-10-20T12:56:33;26.40;;;5.00;;
65418;SDS011;52027;50.658;14.004;2022-10-20T13:04:54;13.48;;;5.00;;
65418;SDS011;52027;50.658;14.004;2022-10-20T13:07:57;10.30;;;5.00;;
65418;SDS011;52027;50.658;14.004;2022-10-20T13:15:35;15.60;;;5.55;;
65418;SDS011;52027;50.658;14.004;2022-10-20T13:18:12;10.02;;;5.03;;
65418;SDS011;52027;50.658;14.004;2022-10-20T13:20:54;12.13;;;4.95;;
65418;SDS011;52027;50.658;14.004;2022-10-20T13:23:40;11.43;;;4.72;;
65418;SDS011;52027;50.658;14.004;2022-10-20T13:26:14;12.55;;;4.60;;
65418;SDS011;52027;50.658;14.004;2022-10-20T13:28:46;12.35;;;5.03;;
65418;SDS011;52027;50.658;14.004;2022-10-20T13:39:44;11.23;;;4.90;;
65418;SDS011;52027;50.658;14.004;2022-10-20T13:42:24;9.85;;;4.63;;
65418;SDS011;52027;50.658;14.004;2022-10-20T13:45:19;15.07;;;4.70;;
65418;SDS011;52027;50.658;14.004;2022-10-20T13:47:58;11.57;;;4.50;;
65418;SDS011;52027;50.658;14.004;2022-10-20T13:50:28;13.95;;;5.22;;
65418;SDS011;52027;50.658;14.004;2022-10-20T13:52:58;12.55;;;5.00;;
65418;SDS011;52027;50.658;14.004;2022-10-20T13:55:28;14.35;;;5.10;;
65418;SDS011;52027;50.658;14.004;2022-10-20T13:58:16;14.10;;;5.13;;
65418;SDS011;52027;50.658;14.004;2022-10-20T14:00:54;17.00;;;5.50;;
65418;SDS011;52027;50.658;14.004;2022-10-20T14:03:30;14.00;;;4.93;;
65418;SDS011;52027;50.658;14.004;2022-10-20T14:06:00;20.10;;;5.40;;
65418;SDS011;52027;50.658;14.004;2022-10-20T14:08:25;18.13;;;5.63;;
65418;SDS011;52027;50.658;14.004;2022-10-20T14:10:58;14.82;;;5.38;;
65418;SDS011;52027;50.658;14.004;2022-10-20T14:13:27;17.83;;;5.80;;
65418;SDS011;52027;50.658;14.004;2022-10-20T14:15:55;15.75;;;5.53;;
65418;SDS011;52027;50.658;14.004;2022-10-20T14:20:57;21.20;;;5.60;;
65418;SDS011;52027;50.658;14.004;2022-10-20T14:23:24;14.93;;;6.25;;
65418;SDS011;52027;50.658;14.004;2022-10-20T14:25:52;16.15;;;5.90;;
65418;SDS011;52027;50.658;14.004;2022-10-20T14:28:19;15.60;;;5.82;;
65418;SDS011;52027;50.658;14.004;2022-10-20T14:30:46;15.07;;;5.60;;
65418;SDS011;52027;50.658;14.004;2022-10-20T14:33:14;14.88;;;5.72;;
65418;SDS011;52027;50.658;14.004;2022-10-20T14:35:41;18.50;;;5.85;;
65418;SDS011;52027;50.658;14.004;2022-10-20T14:38:17;16.25;;;5.88;;
65418;SDS011;52027;50.658;14.004;2022-10-20T14:40:50;22.35;;;6.60;;
65418;SDS011;52027;50.658;14.004;2022-10-20T14:43:18;15.32;;;5.75;;
65418;SDS011;52027;50.658;14.004;2022-10-20T14:45:51;17.55;;;6.45;;
65418;SDS011;52027;50.658;14.004;2022-10-20T14:48:19;18.35;;;5.80;;
65418;SDS011;52027;50.658;14.004;2022-10-20T14:50:45;14.88;;;6.30;;
65418;SDS011;52027;50.658;14.004;2022-10-20T14:53:28;17.80;;;6.45;;
65418;SDS011;52027;50.658;14.004;2022-10-20T14:55:55;15.65;;;5.90;;
65418;SDS011;52027;50.658;14.004;2022-10-20T15:06:29;17.25;;;6.68;;
65418;SDS011;52027;50.658;14.004;2022-10-20T15:08:54;16.92;;;6.15;;
65418;SDS011;52027;50.658;14.004;2022-10-20T15:11:22;16.33;;;6.57;;
65418;SDS011;52027;50.658;14.004;2022-10-20T15:13:50;17.83;;;6.75;;
65418;SDS011;52027;50.658;14.004;2022-10-20T15:16:30;19.45;;;6.47;;
65418;SDS011;52027;50.658;14.004;2022-10-20T15:21:47;17.88;;;6.63;;
65418;SDS011;52027;50.658;14.004;2022-10-20T15:24:14;18.10;;;6.85;;
65418;SDS011;52027;50.658;14.004;2022-10-20T15:26:39;18.02;;;6.53;;
65418;SDS011;52027;50.658;14.004;2022-10-20T15:29:05;16.38;;;6.40;;
65418;SDS011;52027;50.658;14.004;2022-10-20T15:31:32;16.77;;;6.95;;
65418;SDS011;52027;50.658;14.004;2022-10-20T15:33:57;17.48;;;6.78;;
65418;SDS011;52027;50.658;14.004;2022-10-20T15:36:24;16.80;;;7.13;;
65418;SDS011;52027;50.658;14.004;2022-10-20T15:38:57;16.13;;;6.60;;
65418;SDS011;52027;50.658;14.004;2022-10-20T15:41:24;20.05;;;7.30;;
65418;SDS011;52027;50.658;14.004;2022-10-20T15:43:51;20.85;;;7.60;;
65418;SDS011;52027;50.658;14.004;2022-10-20T15:46:17;23.02;;;7.38;;
65418;SDS011;52027;50.658;14.004;2022-10-20T15:48:44;19.13;;;7.60;;
65418;SDS011;52027;50.658;14.004;2022-10-20T15:53:46;17.52;;;7.90;;
65418;SDS011;52027;50.658;14.004;2022-10-20T15:56:13;19.85;;;7.55;;
65418;SDS011;52027;50.658;14.004;2022-10-20T15:58:38;19.27;;;7.65;;
65418;SDS011;52027;50.658;14.004;2022-10-20T16:01:04;19.38;;;7.20;;
65418;SDS011;52027;50.658;14.004;2022-10-20T16:03:29;19.15;;;7.45;;
65418;SDS011;52027;50.658;14.004;2022-10-20T16:05:54;18.05;;;7.60;;
65418;SDS011;52027;50.658;14.004;2022-10-20T16:08:20;19.83;;;7.68;;
65418;SDS011;52027;50.658;14.004;2022-10-20T16:10:45;17.42;;;7.55;;
65418;SDS011;52027;50.658;14.004;2022-10-20T16:13:10;21.77;;;7.80;;
65418;SDS011;52027;50.658;14.004;2022-10-20T16:15:36;22.40;;;7.95;;
65418;SDS011;52027;50.658;14.004;2022-10-20T16:18:02;24.67;;;8.57;;
65418;SDS011;52027;50.658;14.004;2022-10-20T16:20:28;20.50;;;7.65;;
65418;SDS011;52027;50.658;14.004;2022-10-20T16:22:53;18.65;;;8.02;;
65418;SDS011;52027;50.658;14.004;2022-10-20T16:25:18;19.52;;;7.85;;
65418;SDS011;52027;50.658;14.004;2022-10-20T16:27:44;18.58;;;7.93;;
65418;SDS011;52027;50.658;14.004;2022-10-20T16:30:09;21.00;;;8.50;;
65418;SDS011;52027;50.658;14.004;2022-10-20T16:32:35;22.40;;;8.05;;
65418;SDS011;52027;50.658;14.004;2022-10-20T16:35:01;16.52;;;7.53;;
65418;SDS011;52027;50.658;14.004;2022-10-20T16:37:29;20.27;;;7.82;;
65418;SDS011;52027;50.658;14.004;2022-10-20T16:39:55;20.92;;;8.02;;
65418;SDS011;52027;50.658;14.004;2022-10-20T16:42:21;19.10;;;8.35;;
65418;SDS011;52027;50.658;14.004;2022-10-20T16:44:46;22.30;;;7.85;;
65418;SDS011;52027;50.658;14.004;2022-10-20T16:47:12;18.35;;;8.02;;
65418;SDS011;52027;50.658;14.004;2022-10-20T16:49:37;18.42;;;8.18;;
65418;SDS011;52027;50.658;14.004;2022-10-20T16:52:02;17.83;;;8.07;;
65418;SDS011;52027;50.658;14.004;2022-10-20T16:54:28;18.48;;;7.97;;
65418;SDS011;52027;50.658;14.004;2022-10-20T16:56:53;20.85;;;8.40;;